sensor_id;sensor_type;location;lat;lon;timestamp;pressure;altitude;pressure_sealevel;temperature;humidity
57900;BME280;60605;53.716;19.940;2023-12-07T00:04:46;100854.61;;;-1.65;100.00
57900;BME280;60605;53.716;19.940;2023-12-07T00:09:51;100855.08;;;-1.63;100.00
57900;BME280;60605;53.716;19.940;2023-12-07T00:14:55;100855.64;;;-1.60;100.00
57900;BME280;60605;53.716;19.940;2023-12-07T00:19:58;100852.00;;;-1.57;100.00
57900;BME280;60605;53.716;19.940;2023-12-07T00:25:02;100855.21;;;-1.54;100.00
57900;BME280;60605;53.716;19.940;2023-12-07T00:30:06;100855.30;;;-1.52;100.00
57900;BME280;60605;53.716;19.940;2023-12-07T00:35:10;100857.20;;;-1.51;100.00
57900;BME280;60605;53.716;19.940;2023-12-07T00:40:14;100853.27;;;-1.49;100.00
57900;BME280;60605;53.716;19.940;2023-12-07T00:45:17;100850.55;;;-1.47;100.00
57900;BME280;60605;53.716;19.940;2023-12-07T00:50:20;100851.16;;;-1.45;100.00
57900;BME280;60605;53.716;19.940;2023-12-07T00:55:24;100859.54;;;-1.44;100.00
57900;BME280;60605;53.716;19.940;2023-12-07T01:00:27;100864.95;;;-1.44;100.00
57900;BME280;60605;53.716;19.940;2023-12-07T01:05:31;100868.63;;;-1.44;100.00
57900;BME280;60605;53.716;19.940;2023-12-07T01:10:35;100871.15;;;-1.45;100.00
57900;BME280;60605;53.716;19.940;2023-12-07T01:15:39;100871.16;;;-1.46;100.00
57900;BME280;60605;53.716;19.940;2023-12-07T01:20:42;100875.48;;;-1.44;100.00
57900;BME280;60605;53.716;19.940;2023-12-07T01:25:46;100874.98;;;-1.45;100.00
57900;BME280;60605;53.716;19.940;2023-12-07T01:30:50;100871.88;;;-1.46;100.00
57900;BME280;60605;53.716;19.940;2023-12-07T01:35:53;100873.27;;;-1.46;100.00
57900;BME280;60605;53.716;19.940;2023-12-07T01:40:56;100875.88;;;-1.45;100.00
57900;BME280;60605;53.716;19.940;2023-12-07T01:45:59;100872.77;;;-1.46;100.00
57900;BME280;60605;53.716;19.940;2023-12-07T01:51:03;100865.98;;;-1.47;100.00
57900;BME280;60605;53.716;19.940;2023-12-07T01:56:08;100868.25;;;-1.47;100.00
57900;BME280;60605;53.716;19.940;2023-12-07T02:01:12;100867.04;;;-1.48;100.00
57900;BME280;60605;53.716;19.940;2023-12-07T02:06:15;100867.94;;;-1.48;100.00
57900;BME280;60605;53.716;19.940;2023-12-07T02:11:19;100868.36;;;-1.50;100.00
57900;BME280;60605;53.716;19.940;2023-12-07T02:16:31;100864.02;;;-1.51;100.00
57900;BME280;60605;53.716;19.940;2023-12-07T02:21:55;100863.55;;;-1.52;100.00
57900;BME280;60605;53.716;19.940;2023-12-07T02:27:00;100870.95;;;-1.53;100.00
57900;BME280;60605;53.716;19.940;2023-12-07T02:32:04;100876.58;;;-1.54;100.00
57900;BME280;60605;53.716;19.940;2023-12-07T02:37:08;100873.49;;;-1.56;100.00
57900;BME280;60605;53.716;19.940;2023-12-07T02:42:13;100875.25;;;-1.55;100.00
57900;BME280;60605;53.716;19.940;2023-12-07T02:47:18;100872.99;;;-1.56;100.00
57900;BME280;60605;53.716;19.940;2023-12-07T02:52:22;100870.70;;;-1.56;100.00
57900;BME280;60605;53.716;19.940;2023-12-07T02:57:25;100874.17;;;-1.55;100.00
57900;BME280;60605;53.716;19.940;2023-12-07T03:02:28;100874.84;;;-1.54;100.00
57900;BME280;60605;53.716;19.940;2023-12-07T03:07:32;100880.44;;;-1.54;100.00
57900;BME280;60605;53.716;19.940;2023-12-07T03:12:36;100888.13;;;-1.54;100.00
57900;BME280;60605;53.716;19.940;2023-12-07T03:17:40;100893.11;;;-1.52;100.00
57900;BME280;60605;53.716;19.940;2023-12-07T03:22:43;100897.05;;;-1.49;100.00
57900;BME280;60605;53.716;19.940;2023-12-07T03:27:47;100900.18;;;-1.48;100.00
57900;BME280;60605;53.716;19.940;2023-12-07T03:32:50;100904.30;;;-1.47;100.00
57900;BME280;60605;53.716;19.940;2023-12-07T03:37:53;100909.09;;;-1.44;100.00
57900;BME280;60605;53.716;19.940;2023-12-07T03:42:56;100907.64;;;-1.43;100.00
57900;BME280;60605;53.716;19.940;2023-12-07T03:48:00;100903.70;;;-1.41;100.00
57900;BME280;60605;53.716;19.940;2023-12-07T03:53:03;100902.51;;;-1.41;100.00
57900;BME280;60605;53.716;19.940;2023-12-07T03:58:07;100903.92;;;-1.42;100.00
57900;BME280;60605;53.716;19.940;2023-12-07T04:03:10;100905.16;;;-1.42;100.00
57900;BME280;60605;53.716;19.940;2023-12-07T04:08:13;100906.33;;;-1.41;100.00
57900;BME280;60605;53.716;19.940;2023-12-07T04:13:17;100908.60;;;-1.40;100.00
57900;BME280;60605;53.716;19.940;2023-12-07T04:18:21;100908.20;;;-1.39;100.00
57900;BME280;60605;53.716;19.940;2023-12-07T04:23:25;100905.61;;;-1.40;100.00
57900;BME280;60605;53.716;19.940;2023-12-07T04:28:28;100904.41;;;-1.41;100.00
57900;BME280;60605;53.716;19.940;2023-12-07T04:33:32;100907.57;;;-1.41;100.00
57900;BME280;60605;53.716;19.940;2023-12-07T04:38:35;100914.90;;;-1.40;100.00
57900;BME280;60605;53.716;19.940;2023-12-07T04:43:39;100917.63;;;-1.39;100.00
57900;BME280;60605;53.716;19.940;2023-12-07T04:48:42;100918.77;;;-1.37;100.00
57900;BME280;60605;53.716;19.940;2023-12-07T04:53:47;100920.45;;;-1.35;100.00
57900;BME280;60605;53.716;19.940;2023-12-07T04:58:50;100922.31;;;-1.33;100.00
57900;BME280;60605;53.716;19.940;2023-12-07T05:03:54;100928.08;;;-1.33;100.00
57900;BME280;60605;53.716;19.940;2023-12-07T05:08:57;100925.60;;;-1.32;100.00
57900;BME280;60605;53.716;19.940;2023-12-07T05:14:00;100926.65;;;-1.32;100.00
57900;BME280;60605;53.716;19.940;2023-12-07T05:19:04;100932.27;;;-1.32;100.00
57900;BME280;60605;53.716;19.940;2023-12-07T05:24:07;100930.98;;;-1.31;100.00
57900;BME280;60605;53.716;19.940;2023-12-07T05:29:12;100936.05;;;-1.31;100.00
57900;BME280;60605;53.716;19.940;2023-12-07T05:34:16;100933.41;;;-1.31;100.00
57900;BME280;60605;53.716;19.940;2023-12-07T05:39:20;100927.09;;;-1.30;100.00
57900;BME280;60605;53.716;19.940;2023-12-07T05:44:24;100929.86;;;-1.29;100.00
57900;BME280;60605;53.716;19.940;2023-12-07T05:49:27;100936.84;;;-1.28;100.00
57900;BME280;60605;53.716;19.940;2023-12-07T05:54:30;100939.22;;;-1.27;100.00
57900;BME280;60605;53.716;19.940;2023-12-07T05:59:39;100941.08;;;-1.25;100.00
57900;BME280;60605;53.716;19.940;2023-12-07T06:04:43;100947.30;;;-1.23;100.00
57900;BME280;60605;53.716;19.940;2023-12-07T06:09:46;100953.73;;;-1.22;100.00
57900;BME280;60605;53.716;19.940;2023-12-07T06:14:49;100958.92;;;-1.20;100.00
57900;BME280;60605;53.716;19.940;2023-12-07T06:19:53;100961.77;;;-1.17;100.00
57900;BME280;60605;53.716;19.940;2023-12-07T06:24:56;100961.49;;;-1.14;100.00
57900;BME280;60605;53.716;19.940;2023-12-07T06:29:59;100965.10;;;-1.13;100.00
57900;BME280;60605;53.716;19.940;2023-12-07T06:35:03;100965.16;;;-1.10;100.00
57900;BME280;60605;53.716;19.940;2023-12-07T06:40:09;100975.02;;;-1.07;100.00
57900;BME280;60605;53.716;19.940;2023-12-07T06:45:13;100979.54;;;-1.06;100.00
57900;BME280;60605;53.716;19.940;2023-12-07T06:50:17;100979.33;;;-1.05;100.00
57900;BME280;60605;53.716;19.940;2023-12-07T06:55:20;100978.83;;;-1.06;100.00
57900;BME280;60605;53.716;19.940;2023-12-07T07:00:25;100980.23;;;-1.06;100.00
57900;BME280;60605;53.716;19.940;2023-12-07T07:05:30;100984.38;;;-1.04;100.00
57900;BME280;60605;53.716;19.940;2023-12-07T07:10:34;100986.55;;;-1.02;100.00
57900;BME280;60605;53.716;19.940;2023-12-07T07:15:38;100984.86;;;-0.99;100.00
57900;BME280;60605;53.716;19.940;2023-12-07T07:20:41;100990.84;;;-0.95;100.00
57900;BME280;60605;53.716;19.940;2023-12-07T07:25:45;100988.38;;;-0.91;100.00
57900;BME280;60605;53.716;19.940;2023-12-07T07:30:49;100986.45;;;-0.87;100.00
57900;BME280;60605;53.716;19.940;2023-12-07T07:35:54;100988.64;;;-0.85;100.00
57900;BME280;60605;53.716;19.940;2023-12-07T07:41:01;100986.02;;;-0.81;100.00
57900;BME280;60605;53.716;19.940;2023-12-07T07:46:04;100984.13;;;-0.77;100.00
57900;BME280;60605;53.716;19.940;2023-12-07T07:51:08;100981.73;;;-0.71;100.00
57900;BME280;60605;53.716;19.940;2023-12-07T07:56:11;100975.04;;;-0.66;100.00
57900;BME280;60605;53.716;19.940;2023-12-07T08:01:14;100974.58;;;-0.55;100.00
57900;BME280;60605;53.716;19.940;2023-12-07T08:06:18;100976.17;;;-0.39;100.00
57900;BME280;60605;53.716;19.940;2023-12-07T08:11:22;100982.22;;;-0.21;100.00
57900;BME280;60605;53.716;19.940;2023-12-07T08:16:25;100984.86;;;-0.06;100.00
57900;BME280;60605;53.716;19.940;2023-12-07T08:21:30;100985.57;;;0.09;100.00
57900;BME280;60605;53.716;19.940;2023-12-07T08:26:34;100987.71;;;0.20;100.00
57900;BME280;60605;53.716;19.940;2023-12-07T08:31:37;100995.83;;;0.31;100.00
57900;BME280;60605;53.716;19.940;2023-12-07T08:36:42;101005.17;;;0.37;100.00
57900;BME280;60605;53.716;19.940;2023-12-07T08:41:45;101009.58;;;0.45;100.00
57900;BME280;60605;53.716;19.940;2023-12-07T08:46:48;101012.59;;;0.52;100.00
57900;BME280;60605;53.716;19.940;2023-12-07T08:51:52;101015.38;;;0.56;100.00
57900;BME280;60605;53.716;19.940;2023-12-07T08:57:18;101017.70;;;0.63;100.00
57900;BME280;60605;53.716;19.940;2023-12-07T09:02:22;101019.64;;;0.66;100.00
57900;BME280;60605;53.716;19.940;2023-12-07T09:07:44;101025.83;;;0.77;100.00
57900;BME280;60605;53.716;19.940;2023-12-07T09:12:47;101023.95;;;0.90;100.00
57900;BME280;60605;53.716;19.940;2023-12-07T09:17:51;101019.15;;;1.01;100.00
57900;BME280;60605;53.716;19.940;2023-12-07T09:22:54;101021.95;;;1.12;100.00
57900;BME280;60605;53.716;19.940;2023-12-07T09:28:00;101016.67;;;1.20;100.00
57900;BME280;60605;53.716;19.940;2023-12-07T09:33:04;101013.99;;;1.27;100.00
57900;BME280;60605;53.716;19.940;2023-12-07T09:38:08;101011.91;;;1.34;100.00
57900;BME280;60605;53.716;19.940;2023-12-07T09:43:13;101004.48;;;1.34;100.00
57900;BME280;60605;53.716;19.940;2023-12-07T09:48:16;101003.13;;;1.33;100.00
57900;BME280;60605;53.716;19.940;2023-12-07T09:53:20;101005.48;;;1.39;100.00
57900;BME280;60605;53.716;19.940;2023-12-07T09:58:24;101005.69;;;1.45;100.00
57900;BME280;60605;53.716;19.940;2023-12-07T10:03:40;101003.34;;;1.47;100.00
57900;BME280;60605;53.716;19.940;2023-12-07T10:08:43;101001.10;;;1.45;100.00
57900;BME280;60605;53.716;19.940;2023-12-07T10:13:50;101001.17;;;1.47;100.00
57900;BME280;60605;53.716;19.940;2023-12-07T10:18:53;100995.64;;;1.63;100.00
57900;BME280;60605;53.716;19.940;2023-12-07T10:23:56;100988.23;;;1.80;100.00
57900;BME280;60605;53.716;19.940;2023-12-07T10:29:00;100984.27;;;1.88;100.00
57900;BME280;60605;53.716;19.940;2023-12-07T10:34:05;100983.77;;;1.92;100.00
57900;BME280;60605;53.716;19.940;2023-12-07T10:39:09;100979.73;;;1.94;100.00
57900;BME280;60605;53.716;19.940;2023-12-07T10:44:24;100978.02;;;1.97;100.00
57900;BME280;60605;53.716;19.940;2023-12-07T10:49:30;100980.89;;;2.02;100.00
57900;BME280;60605;53.716;19.940;2023-12-07T10:55:03;100983.58;;;2.14;100.00
57900;BME280;60605;53.716;19.940;2023-12-07T11:00:08;100984.17;;;2.26;100.00
57900;BME280;60605;53.716;19.940;2023-12-07T11:05:12;100981.55;;;2.29;100.00
57900;BME280;60605;53.716;19.940;2023-12-07T11:10:30;100976.50;;;2.34;100.00
57900;BME280;60605;53.716;19.940;2023-12-07T11:15:37;100968.48;;;2.36;100.00
57900;BME280;60605;53.716;19.940;2023-12-07T11:20:45;100965.27;;;2.33;100.00
57900;BME280;60605;53.716;19.940;2023-12-07T11:25:52;100970.34;;;2.21;100.00
57900;BME280;60605;53.716;19.940;2023-12-07T11:30:58;100971.88;;;2.16;100.00
57900;BME280;60605;53.716;19.940;2023-12-07T11:41:05;100973.27;;;2.06;100.00
57900;BME280;60605;53.716;19.940;2023-12-07T11:46:09;100971.31;;;2.00;100.00
57900;BME280;60605;53.716;19.940;2023-12-07T11:51:12;100963.04;;;1.97;100.00
57900;BME280;60605;53.716;19.940;2023-12-07T11:56:16;100962.89;;;1.86;100.00
57900;BME280;60605;53.716;19.940;2023-12-07T12:01:26;100955.55;;;1.75;100.00
57900;BME280;60605;53.716;19.940;2023-12-07T12:06:31;100947.09;;;1.72;100.00
57900;BME280;60605;53.716;19.940;2023-12-07T12:11:35;100947.66;;;1.71;100.00
57900;BME280;60605;53.716;19.940;2023-12-07T12:16:38;100948.20;;;1.68;100.00
57900;BME280;60605;53.716;19.940;2023-12-07T12:21:42;100949.14;;;1.70;100.00
57900;BME280;60605;53.716;19.940;2023-12-07T12:26:47;100949.73;;;1.75;100.00
57900;BME280;60605;53.716;19.940;2023-12-07T12:31:50;100948.56;;;1.77;100.00
57900;BME280;60605;53.716;19.940;2023-12-07T12:36:57;100954.70;;;1.78;100.00
57900;BME280;60605;53.716;19.940;2023-12-07T12:42:02;100961.17;;;1.72;100.00
57900;BME280;60605;53.716;19.940;2023-12-07T12:47:09;100960.86;;;1.65;100.00
57900;BME280;60605;53.716;19.940;2023-12-07T12:52:16;100956.27;;;1.61;100.00
57900;BME280;60605;53.716;19.940;2023-12-07T12:57:20;100961.27;;;1.60;100.00
57900;BME280;60605;53.716;19.940;2023-12-07T13:02:24;100964.58;;;1.57;100.00
57900;BME280;60605;53.716;19.940;2023-12-07T13:07:28;100965.95;;;1.58;100.00
57900;BME280;60605;53.716;19.940;2023-12-07T13:12:32;100962.50;;;1.50;100.00
57900;BME280;60605;53.716;19.940;2023-12-07T13:17:38;100958.31;;;1.36;100.00
57900;BME280;60605;53.716;19.940;2023-12-07T13:22:42;100952.84;;;1.26;100.00
57900;BME280;60605;53.716;19.940;2023-12-07T13:27:49;100944.66;;;1.17;100.00
57900;BME280;60605;53.716;19.940;2023-12-07T13:32:53;100949.86;;;1.12;100.00
57900;BME280;60605;53.716;19.940;2023-12-07T13:37:56;100950.26;;;1.04;100.00
57900;BME280;60605;53.716;19.940;2023-12-07T13:43:01;100946.61;;;0.96;100.00
57900;BME280;60605;53.716;19.940;2023-12-07T13:48:04;100952.73;;;0.90;100.00
57900;BME280;60605;53.716;19.940;2023-12-07T13:53:08;100956.83;;;0.82;100.00
57900;BME280;60605;53.716;19.940;2023-12-07T13:58:15;100955.83;;;0.73;100.00
57900;BME280;60605;53.716;19.940;2023-12-07T14:03:19;100958.14;;;0.69;100.00
57900;BME280;60605;53.716;19.940;2023-12-07T14:08:22;100964.02;;;0.64;100.00
57900;BME280;60605;53.716;19.940;2023-12-07T14:13:26;100968.08;;;0.60;100.00
57900;BME280;60605;53.716;19.940;2023-12-07T14:18:29;100968.27;;;0.56;100.00
57900;BME280;60605;53.716;19.940;2023-12-07T14:23:33;100965.26;;;0.53;100.00
57900;BME280;60605;53.716;19.940;2023-12-07T14:28:38;100960.19;;;0.49;100.00
57900;BME280;60605;53.716;19.940;2023-12-07T14:33:41;100962.98;;;0.46;100.00
57900;BME280;60605;53.716;19.940;2023-12-07T14:38:45;100962.39;;;0.43;100.00
57900;BME280;60605;53.716;19.940;2023-12-07T14:43:48;100963.38;;;0.41;100.00
57900;BME280;60605;53.716;19.940;2023-12-07T14:48:51;100967.48;;;0.39;100.00
57900;BME280;60605;53.716;19.940;2023-12-07T14:53:55;100967.73;;;0.38;100.00
57900;BME280;60605;53.716;19.940;2023-12-07T14:59:00;100966.64;;;0.35;100.00
57900;BME280;60605;53.716;19.940;2023-12-07T15:04:03;100969.19;;;0.33;100.00
57900;BME280;60605;53.716;19.940;2023-12-07T15:09:09;100974.70;;;0.32;100.00
57900;BME280;60605;53.716;19.940;2023-12-07T15:14:12;100972.05;;;0.32;100.00
57900;BME280;60605;53.716;19.940;2023-12-07T15:19:35;100975.83;;;0.34;100.00
57900;BME280;60605;53.716;19.940;2023-12-07T15:24:43;100976.40;;;0.36;100.00
57900;BME280;60605;53.716;19.940;2023-12-07T15:29:46;100977.67;;;0.36;100.00
57900;BME280;60605;53.716;19.940;2023-12-07T15:34:49;100977.90;;;0.35;100.00
57900;BME280;60605;53.716;19.940;2023-12-07T15:39:53;100979.33;;;0.34;100.00
57900;BME280;60605;53.716;19.940;2023-12-07T15:44:56;100982.67;;;0.34;100.00
57900;BME280;60605;53.716;19.940;2023-12-07T15:49:59;100991.52;;;0.32;100.00
57900;BME280;60605;53.716;19.940;2023-12-07T15:55:03;100994.80;;;0.30;100.00
57900;BME280;60605;53.716;19.940;2023-12-07T16:00:11;100994.09;;;0.26;100.00
57900;BME280;60605;53.716;19.940;2023-12-07T16:05:15;100996.42;;;0.22;100.00
57900;BME280;60605;53.716;19.940;2023-12-07T16:10:18;100997.95;;;0.19;100.00
57900;BME280;60605;53.716;19.940;2023-12-07T16:15:23;101004.23;;;0.16;100.00
57900;BME280;60605;53.716;19.940;2023-12-07T16:20:27;101012.06;;;0.14;100.00
57900;BME280;60605;53.716;19.940;2023-12-07T16:25:31;101011.77;;;0.12;100.00
57900;BME280;60605;53.716;19.940;2023-12-07T16:30:34;101015.17;;;0.11;100.00
57900;BME280;60605;53.716;19.940;2023-12-07T16:35:50;101017.90;;;0.09;100.00
57900;BME280;60605;53.716;19.940;2023-12-07T16:40:54;101021.48;;;0.08;100.00
57900;BME280;60605;53.716;19.940;2023-12-07T16:45:58;101023.78;;;0.07;100.00
57900;BME280;60605;53.716;19.940;2023-12-07T16:51:02;101026.07;;;0.07;100.00
57900;BME280;60605;53.716;19.940;2023-12-07T16:56:09;101025.37;;;0.07;100.00
57900;BME280;60605;53.716;19.940;2023-12-07T17:01:20;101023.64;;;0.06;100.00
57900;BME280;60605;53.716;19.940;2023-12-07T17:06:23;101032.64;;;0.06;100.00
57900;BME280;60605;53.716;19.940;2023-12-07T17:11:27;101037.36;;;0.06;100.00
57900;BME280;60605;53.716;19.940;2023-12-07T17:16:31;101030.86;;;0.06;100.00
57900;BME280;60605;53.716;19.940;2023-12-07T17:21:36;101031.72;;;0.06;100.00
57900;BME280;60605;53.716;19.940;2023-12-07T17:26:40;101027.73;;;0.05;100.00
57900;BME280;60605;53.716;19.940;2023-12-07T17:31:55;101032.02;;;0.03;100.00
57900;BME280;60605;53.716;19.940;2023-12-07T17:37:02;101037.33;;;0.03;100.00
57900;BME280;60605;53.716;19.940;2023-12-07T17:42:06;101040.20;;;0.01;100.00
57900;BME280;60605;53.716;19.940;2023-12-07T17:47:10;101038.31;;;-0.00;100.00
57900;BME280;60605;53.716;19.940;2023-12-07T17:52:13;101033.80;;;-0.01;100.00
57900;BME280;60605;53.716;19.940;2023-12-07T17:57:16;101033.20;;;-0.03;100.00
57900;BME280;60605;53.716;19.940;2023-12-07T18:02:20;101035.75;;;-0.06;100.00
57900;BME280;60605;53.716;19.940;2023-12-07T18:07:23;101035.73;;;-0.09;100.00
57900;BME280;60605;53.716;19.940;2023-12-07T18:12:27;101034.98;;;-0.12;100.00
57900;BME280;60605;53.716;19.940;2023-12-07T18:17:30;101039.46;;;-0.14;100.00
57900;BME280;60605;53.716;19.940;2023-12-07T18:22:34;101041.61;;;-0.15;100.00
57900;BME280;60605;53.716;19.940;2023-12-07T18:27:37;101037.74;;;-0.19;100.00
57900;BME280;60605;53.716;19.940;2023-12-07T18:32:41;101036.17;;;-0.23;100.00
57900;BME280;60605;53.716;19.940;2023-12-07T18:37:46;101035.47;;;-0.27;100.00
57900;BME280;60605;53.716;19.940;2023-12-07T18:42:50;101035.98;;;-0.31;100.00
57900;BME280;60605;53.716;19.940;2023-12-07T18:47:53;101043.45;;;-0.33;100.00
57900;BME280;60605;53.716;19.940;2023-12-07T18:52:57;101049.88;;;-0.36;100.00
57900;BME280;60605;53.716;19.940;2023-12-07T18:58:00;101048.77;;;-0.38;100.00
57900;BME280;60605;53.716;19.940;2023-12-07T19:03:03;101051.91;;;-0.42;100.00
57900;BME280;60605;53.716;19.940;2023-12-07T19:08:10;101046.05;;;-0.45;100.00
57900;BME280;60605;53.716;19.940;2023-12-07T19:13:14;101042.16;;;-0.48;100.00
57900;BME280;60605;53.716;19.940;2023-12-07T19:18:18;101044.10;;;-0.52;100.00
57900;BME280;60605;53.716;19.940;2023-12-07T19:23:22;101034.42;;;-0.56;100.00
57900;BME280;60605;53.716;19.940;2023-12-07T19:28:25;101032.13;;;-0.59;100.00
57900;BME280;60605;53.716;19.940;2023-12-07T19:33:29;101038.20;;;-0.62;100.00
57900;BME280;60605;53.716;19.940;2023-12-07T19:38:36;101037.40;;;-0.64;100.00
57900;BME280;60605;53.716;19.940;2023-12-07T19:43:39;101038.17;;;-0.66;100.00
57900;BME280;60605;53.716;19.940;2023-12-07T19:48:43;101038.81;;;-0.68;100.00
57900;BME280;60605;53.716;19.940;2023-12-07T19:53:49;101044.33;;;-0.70;100.00
57900;BME280;60605;53.716;19.940;2023-12-07T19:58:53;101044.32;;;-0.70;100.00
57900;BME280;60605;53.716;19.940;2023-12-07T20:03:56;101040.67;;;-0.71;100.00
57900;BME280;60605;53.716;19.940;2023-12-07T20:09:01;101043.14;;;-0.71;100.00
57900;BME280;60605;53.716;19.940;2023-12-07T20:14:04;101049.89;;;-0.73;100.00
57900;BME280;60605;53.716;19.940;2023-12-07T20:19:08;101043.80;;;-0.74;100.00
57900;BME280;60605;53.716;19.940;2023-12-07T20:24:15;101044.73;;;-0.76;100.00
57900;BME280;60605;53.716;19.940;2023-12-07T20:29:19;101042.34;;;-0.77;100.00
57900;BME280;60605;53.716;19.940;2023-12-07T20:34:24;101046.08;;;-0.79;100.00
57900;BME280;60605;53.716;19.940;2023-12-07T20:39:29;101042.79;;;-0.80;100.00
57900;BME280;60605;53.716;19.940;2023-12-07T20:44:32;101042.98;;;-0.81;100.00
57900;BME280;60605;53.716;19.940;2023-12-07T20:49:36;101044.27;;;-0.82;100.00
57900;BME280;60605;53.716;19.940;2023-12-07T20:54:43;101038.39;;;-0.84;100.00
57900;BME280;60605;53.716;19.940;2023-12-07T20:59:49;101042.24;;;-0.83;100.00
57900;BME280;60605;53.716;19.940;2023-12-07T21:04:52;101043.27;;;-0.83;100.00
57900;BME280;60605;53.716;19.940;2023-12-07T21:09:56;101050.20;;;-0.81;100.00
57900;BME280;60605;53.716;19.940;2023-12-07T21:14:59;101059.29;;;-0.81;100.00
57900;BME280;60605;53.716;19.940;2023-12-07T21:20:04;101061.52;;;-0.79;100.00
57900;BME280;60605;53.716;19.940;2023-12-07T21:25:08;101062.91;;;-0.79;100.00
57900;BME280;60605;53.716;19.940;2023-12-07T21:30:13;101068.85;;;-0.78;100.00
57900;BME280;60605;53.716;19.940;2023-12-07T21:35:17;101065.53;;;-0.78;100.00
57900;BME280;60605;53.716;19.940;2023-12-07T21:40:21;101059.79;;;-0.79;100.00
57900;BME280;60605;53.716;19.940;2023-12-07T21:45:25;101059.33;;;-0.81;100.00
57900;BME280;60605;53.716;19.940;2023-12-07T21:50:29;101060.57;;;-0.82;100.00
57900;BME280;60605;53.716;19.940;2023-12-07T21:55:33;101059.91;;;-0.83;100.00
57900;BME280;60605;53.716;19.940;2023-12-07T22:00:36;101058.75;;;-0.84;100.00
57900;BME280;60605;53.716;19.940;2023-12-07T22:05:40;101053.66;;;-0.84;100.00
57900;BME280;60605;53.716;19.940;2023-12-07T22:10:44;101048.42;;;-0.84;100.00
57900;BME280;60605;53.716;19.940;2023-12-07T22:15:48;101051.31;;;-0.87;100.00
57900;BME280;60605;53.716;19.940;2023-12-07T22:20:51;101054.76;;;-0.89;100.00
57900;BME280;60605;53.716;19.940;2023-12-07T22:25:55;101058.94;;;-0.93;100.00
57900;BME280;60605;53.716;19.940;2023-12-07T22:30:59;101055.60;;;-0.97;100.00
57900;BME280;60605;53.716;19.940;2023-12-07T22:36:03;101043.17;;;-1.02;100.00
57900;BME280;60605;53.716;19.940;2023-12-07T22:41:07;101043.67;;;-1.05;100.00
57900;BME280;60605;53.716;19.940;2023-12-07T22:46:14;101038.71;;;-1.09;100.00
57900;BME280;60605;53.716;19.940;2023-12-07T22:51:17;101040.79;;;-1.12;100.00
57900;BME280;60605;53.716;19.940;2023-12-07T22:56:21;101035.59;;;-1.18;100.00
57900;BME280;60605;53.716;19.940;2023-12-07T23:01:24;101038.05;;;-1.22;100.00
57900;BME280;60605;53.716;19.940;2023-12-07T23:06:28;101038.33;;;-1.26;100.00
57900;BME280;60605;53.716;19.940;2023-12-07T23:11:31;101039.82;;;-1.27;100.00
57900;BME280;60605;53.716;19.940;2023-12-07T23:16:34;101036.20;;;-1.29;100.00
57900;BME280;60605;53.716;19.940;2023-12-07T23:21:37;101031.03;;;-1.31;100.00
57900;BME280;60605;53.716;19.940;2023-12-07T23:26:42;101022.86;;;-1.33;100.00
57900;BME280;60605;53.716;19.940;2023-12-07T23:31:46;101016.90;;;-1.37;100.00
57900;BME280;60605;53.716;19.940;2023-12-07T23:36:49;101001.75;;;-1.44;100.00
57900;BME280;60605;53.716;19.940;2023-12-07T23:41:53;100990.88;;;-1.52;100.00
57900;BME280;60605;53.716;19.940;2023-12-07T23:46:56;100980.48;;;-1.59;100.00
57900;BME280;60605;53.716;19.940;2023-12-07T23:51:59;100974.40;;;-1.66;100.00
57900;BME280;60605;53.716;19.940;2023-12-07T23:57:03;100980.02;;;-1.71;100.00
